Time;durP1;ratioP1;P1;durP2;ratioP2;P2;SDS_P1;SDS_P2;PMS_P1;PMS_P2;Temp;Humidity;BMP_temperature;BMP_pressure;BME280_temperature;BME280_humidity;BME280_pressure;Samples;Min_cycle;Max_cycle;Signal;HPM_P1;HPM_P2
2021/10/16 00:02:03;;;;;;;8.88;2.75;;;5.10;99.90;;;;;;4947554;28;20130;-83
2021/10/16 00:04:29;;;;;;;9.27;3.38;;;5.10;99.90;;;;;;4971576;28;20058;-83
2021/10/16 00:06:54;;;;;;;6.88;2.90;;;5.00;99.90;;;;;;4964798;28;20026;-82
2021/10/16 00:09:20;;;;;;;8.00;2.70;;;5.00;99.90;;;;;;4983064;28;20031;-83
2021/10/16 00:11:46;;;;;;;14.10;3.85;;;5.00;99.90;;;;;;4983434;28;20491;-83
2021/10/16 00:14:11;;;;;;;12.00;4.15;;;4.90;99.90;;;;;;4986406;28;20482;-83
2021/10/16 00:16:37;;;;;;;13.60;3.47;;;4.80;99.90;;;;;;5003728;28;20774;-83
2021/10/16 00:19:02;;;;;;;11.93;4.03;;;4.60;99.90;;;;;;4972851;28;20034;-83
2021/10/16 00:21:28;;;;;;;12.05;3.80;;;4.70;99.90;;;;;;4978234;28;20027;-83
2021/10/16 00:23:53;;;;;;;9.15;3.30;;;4.70;99.90;;;;;;4960512;28;20089;-83
2021/10/16 00:26:19;;;;;;;6.78;3.80;;;4.70;99.90;;;;;;4968681;28;20050;-83
2021/10/16 00:28:44;;;;;;;14.68;3.63;;;4.70;99.90;;;;;;4982237;28;20394;-83
2021/10/16 00:31:10;;;;;;;13.15;3.97;;;4.60;99.90;;;;;;4966047;28;20513;-83
2021/10/16 00:33:35;;;;;;;12.95;3.75;;;4.50;99.90;;;;;;4985336;28;20034;-83
2021/10/16 00:36:01;;;;;;;8.23;3.03;;;4.50;99.90;;;;;;4963354;28;20038;-83
2021/10/16 00:38:27;;;;;;;9.82;3.50;;;4.50;99.90;;;;;;5001153;28;20030;-83
2021/10/16 00:40:52;;;;;;;14.88;3.30;;;4.40;99.90;;;;;;4981926;28;20263;-83
2021/10/16 00:43:18;;;;;;;11.15;3.45;;;4.40;99.90;;;;;;4968655;28;20034;-83
2021/10/16 00:45:43;;;;;;;13.20;3.78;;;4.20;99.90;;;;;;4961011;28;20035;-83
2021/10/16 00:48:09;;;;;;;10.23;3.15;;;4.10;99.90;;;;;;4962234;28;20089;-83
2021/10/16 00:50:35;;;;;;;8.90;3.55;;;4.20;99.90;;;;;;4951780;28;20026;-82
2021/10/16 00:53:00;;;;;;;7.40;2.47;;;4.30;99.90;;;;;;4965787;28;20253;-83
2021/10/16 00:55:26;;;;;;;11.38;2.95;;;4.30;99.90;;;;;;4968000;28;20124;-83
2021/10/16 00:57:53;;;;;;;6.25;2.40;;;4.50;99.90;;;;;;4966243;28;20035;-83
2021/10/16 01:00:19;;;;;;;8.88;2.53;;;4.50;99.90;;;;;;4952706;28;20081;-83
2021/10/16 01:02:44;;;;;;;6.72;3.53;;;4.40;99.90;;;;;;4971385;28;20117;-83
2021/10/16 01:05:10;;;;;;;5.35;2.17;;;4.30;99.90;;;;;;5003188;28;20030;-83
2021/10/16 01:07:36;;;;;;;8.18;3.15;;;4.20;99.90;;;;;;4985590;28;20390;-83
2021/10/16 01:10:02;;;;;;;9.55;3.15;;;4.30;99.90;;;;;;4976780;28;20053;-83
2021/10/16 01:12:29;;;;;;;10.13;3.25;;;4.40;99.90;;;;;;4969396;28;20117;-83
2021/10/16 01:14:56;;;;;;;10.43;4.72;;;4.30;99.90;;;;;;4972899;28;20042;-83
2021/10/16 01:17:22;;;;;;;9.57;2.78;;;4.20;99.90;;;;;;4983142;28;20125;-83
2021/10/16 01:19:52;;;;;;;6.05;2.65;;;4.10;99.90;;;;;;4986858;28;20622;-83
2021/10/16 01:22:17;;;;;;;9.90;3.03;;;4.20;99.90;;;;;;4979434;28;20502;-83
2021/10/16 01:24:43;;;;;;;5.57;2.35;;;4.10;99.90;;;;;;4973146;28;20358;-83
2021/10/16 01:27:08;;;;;;;9.60;3.25;;;4.20;99.90;;;;;;4985323;28;20030;-83
2021/10/16 01:29:35;;;;;;;7.68;2.38;;;4.20;99.90;;;;;;4981857;28;20060;-83
2021/10/16 01:32:01;;;;;;;4.97;2.53;;;4.40;99.90;;;;;;4963913;28;20034;-83
2021/10/16 01:34:27;;;;;;;5.95;2.60;;;4.40;99.90;;;;;;5004184;28;20108;-83
2021/10/16 01:36:53;;;;;;;5.50;2.63;;;4.50;99.90;;;;;;4973238;28;20091;-83
2021/10/16 01:39:19;;;;;;;7.57;3.03;;;4.60;99.90;;;;;;5023034;28;20457;-83
2021/10/16 01:41:44;;;;;;;6.43;2.95;;;4.30;99.90;;;;;;5002446;28;20611;-83
2021/10/16 01:44:10;;;;;;;8.70;2.92;;;4.20;99.90;;;;;;5000684;28;20022;-83
2021/10/16 01:46:35;;;;;;;9.02;2.80;;;4.30;99.90;;;;;;4986574;28;20023;-84
2021/10/16 01:49:12;;;;;;;16.40;4.70;;;4.10;99.90;;;;;;4977919;28;20025;-83
2021/10/16 01:51:38;;;;;;;10.18;3.70;;;4.00;99.90;;;;;;4971479;28;20034;-83
2021/10/16 01:54:04;;;;;;;11.57;3.97;;;3.90;99.90;;;;;;4989215;28;20065;-83
2021/10/16 01:56:29;;;;;;;8.00;3.35;;;3.90;99.90;;;;;;4956601;28;20108;-83
2021/10/16 01:58:55;;;;;;;7.55;3.85;;;3.80;99.90;;;;;;4984163;28;20022;-83
2021/10/16 02:01:20;;;;;;;13.80;4.22;;;3.70;99.90;;;;;;4988997;28;20030;-83
2021/10/16 02:03:46;;;;;;;8.23;3.63;;;3.60;99.90;;;;;;4981959;28;20026;-83
2021/10/16 02:06:11;;;;;;;6.63;3.13;;;3.60;99.90;;;;;;5002469;28;20489;-83
2021/10/16 02:08:40;;;;;;;8.00;3.75;;;3.60;99.90;;;;;;4996870;28;20045;-83
2021/10/16 02:11:05;;;;;;;12.30;4.00;;;3.60;99.90;;;;;;4981265;28;20158;-83
2021/10/16 02:13:31;;;;;;;7.97;2.90;;;3.50;99.90;;;;;;4995124;28;20042;-83
2021/10/16 02:15:56;;;;;;;11.90;4.38;;;3.50;99.90;;;;;;4999093;28;20033;-83
2021/10/16 02:18:22;;;;;;;7.90;3.03;;;3.40;99.90;;;;;;4953965;28;20057;-83
2021/10/16 02:20:47;;;;;;;7.50;3.10;;;3.40;99.90;;;;;;4966231;28;20042;-83
2021/10/16 02:23:13;;;;;;;9.65;4.00;;;3.50;99.90;;;;;;4964137;28;20507;-83
2021/10/16 02:25:39;;;;;;;7.97;3.08;;;3.60;99.90;;;;;;4984362;28;20049;-83
2021/10/16 02:28:04;;;;;;;7.30;3.35;;;3.50;99.90;;;;;;4964270;28;20030;-83
2021/10/16 02:30:30;;;;;;;14.80;4.80;;;3.60;99.90;;;;;;4962949;28;20060;-83
2021/10/16 02:32:55;;;;;;;9.05;2.55;;;3.60;99.90;;;;;;4984501;28;20406;-83
2021/10/16 02:35:21;;;;;;;7.88;2.90;;;3.50;99.90;;;;;;4968940;28;20034;-83
2021/10/16 02:37:46;;;;;;;9.23;2.75;;;3.60;99.90;;;;;;4944503;28;20065;-83
2021/10/16 02:40:12;;;;;;;9.38;3.20;;;3.80;99.90;;;;;;4984482;28;20477;-83
2021/10/16 02:42:39;;;;;;;9.35;3.55;;;3.70;99.90;;;;;;4989087;28;20040;-83
2021/10/16 02:45:05;;;;;;;15.77;3.53;;;3.50;99.90;;;;;;4988308;28;20038;-83
2021/10/16 02:47:31;;;;;;;9.88;3.05;;;3.30;99.90;;;;;;5001886;28;20046;-83
2021/10/16 02:50:00;;;;;;;8.38;3.72;;;3.50;99.90;;;;;;5004639;28;20458;-84
2021/10/16 02:52:25;;;;;;;13.00;2.90;;;3.60;99.90;;;;;;5005024;28;20116;-83
2021/10/16 02:54:51;;;;;;;6.95;3.20;;;3.50;99.90;;;;;;5019931;28;20165;-84
2021/10/16 02:57:17;;;;;;;10.85;3.80;;;3.40;99.90;;;;;;4965221;28;20057;-83
2021/10/16 02:59:42;;;;;;;5.25;2.92;;;3.20;99.90;;;;;;5003304;28;20035;-84
2021/10/16 03:02:08;;;;;;;7.82;3.03;;;3.30;99.90;;;;;;4998006;28;20076;-83
2021/10/16 03:04:33;;;;;;;6.45;2.30;;;3.30;99.90;;;;;;4987105;28;20131;-83
2021/10/16 03:06:59;;;;;;;9.15;3.03;;;3.50;99.90;;;;;;4964223;28;20030;-83
2021/10/16 03:09:24;;;;;;;8.02;3.58;;;3.50;99.90;;;;;;5005009;28;20038;-83
2021/10/16 03:11:50;;;;;;;5.75;3.13;;;3.30;99.90;;;;;;4991466;28;20033;-83
2021/10/16 03:14:16;;;;;;;7.85;3.03;;;3.30;99.90;;;;;;5010224;28;20023;-83
2021/10/16 03:16:41;;;;;;;7.10;2.80;;;3.30;99.90;;;;;;4999028;28;20070;-83
2021/10/16 03:19:07;;;;;;;4.07;2.38;;;3.20;99.90;;;;;;4982708;28;21905;-83
2021/10/16 03:21:32;;;;;;;8.93;3.25;;;3.30;99.90;;;;;;4974873;28;20166;-83
2021/10/16 03:23:58;;;;;;;7.22;2.45;;;3.30;99.90;;;;;;4953449;28;20134;-83
2021/10/16 03:26:23;;;;;;;5.68;2.63;;;3.30;99.90;;;;;;4981772;28;20054;-83
2021/10/16 03:28:49;;;;;;;9.00;3.97;;;3.30;99.90;;;;;;4959736;28;20121;-83
2021/10/16 03:31:14;;;;;;;5.57;2.53;;;3.10;99.90;;;;;;4950044;28;20102;-83
2021/10/16 03:33:40;;;;;;;11.30;3.53;;;3.10;99.90;;;;;;4990699;28;20022;-83
2021/10/16 03:36:05;;;;;;;9.75;3.83;;;3.20;99.90;;;;;;4969940;28;20373;-83
2021/10/16 03:38:31;;;;;;;6.70;2.88;;;3.10;99.90;;;;;;4966258;28;20047;-83
2021/10/16 03:40:56;;;;;;;10.73;3.80;;;3.20;99.90;;;;;;4983796;28;20073;-83
2021/10/16 03:43:22;;;;;;;7.85;3.33;;;3.10;99.90;;;;;;4952943;28;20069;-83
2021/10/16 03:45:47;;;;;;;9.38;3.22;;;2.90;99.90;;;;;;4963560;28;20114;-83
2021/10/16 03:48:13;;;;;;;14.82;3.72;;;2.90;99.90;;;;;;4975020;28;20121;-83
2021/10/16 03:50:38;;;;;;;7.18;2.55;;;2.80;99.90;;;;;;5003453;28;20029;-84
2021/10/16 03:53:04;;;;;;;8.50;3.80;;;2.90;99.90;;;;;;4982360;28;20027;-83
2021/10/16 03:55:29;;;;;;;16.63;3.38;;;2.90;99.90;;;;;;4988059;28;20375;-83
2021/10/16 03:57:55;;;;;;;6.53;3.03;;;2.90;99.90;;;;;;5005232;28;20061;-83
2021/10/16 04:00:20;;;;;;;5.78;2.25;;;2.80;99.90;;;;;;4971764;28;20053;-83
2021/10/16 04:02:51;;;;;;;13.75;4.10;;;2.80;99.90;;;;;;4971535;28;20410;-84
2021/10/16 04:05:17;;;;;;;9.25;3.53;;;2.80;99.90;;;;;;4968303;28;20073;-83
2021/10/16 04:07:42;;;;;;;6.43;2.67;;;2.80;99.90;;;;;;4983064;28;20065;-83
2021/10/16 04:10:08;;;;;;;5.88;2.97;;;2.80;99.90;;;;;;4961775;28;20049;-83
2021/10/16 04:12:34;;;;;;;9.38;3.40;;;2.80;99.90;;;;;;4959152;28;20057;-83
2021/10/16 04:14:59;;;;;;;6.30;2.40;;;2.70;99.90;;;;;;4981034;28;20053;-83
2021/10/16 04:17:25;;;;;;;7.28;2.75;;;2.80;99.90;;;;;;4965320;28;20038;-83
2021/10/16 04:19:50;;;;;;;8.48;3.22;;;3.10;99.90;;;;;;4964517;28;20258;-83
2021/10/16 04:22:16;;;;;;;4.90;2.45;;;3.20;99.90;;;;;;4971218;28;20104;-83
2021/10/16 04:24:41;;;;;;;10.10;3.20;;;3.20;99.90;;;;;;4988260;28;20034;-83
2021/10/16 04:27:07;;;;;;;5.28;2.53;;;3.30;99.90;;;;;;4990101;28;20036;-83
2021/10/16 04:29:32;;;;;;;8.05;2.55;;;3.10;99.90;;;;;;5000954;28;20112;-84
2021/10/16 04:31:58;;;;;;;6.82;3.08;;;3.20;99.90;;;;;;4972045;28;20042;-84
2021/10/16 04:34:23;;;;;;;5.78;3.03;;;3.30;99.90;;;;;;4991018;28;20080;-84
2021/10/16 04:36:49;;;;;;;8.27;3.08;;;3.30;99.90;;;;;;4990376;28;20101;-84
2021/10/16 04:39:14;;;;;;;10.73;2.97;;;3.20;99.90;;;;;;4997491;28;20490;-84
2021/10/16 04:41:40;;;;;;;7.40;3.45;;;3.10;99.90;;;;;;4999845;28;20031;-84
2021/10/16 04:44:06;;;;;;;8.63;2.95;;;2.90;99.90;;;;;;5003163;28;20060;-84
2021/10/16 04:46:32;;;;;;;7.22;2.90;;;2.80;99.90;;;;;;4995594;28;20030;-84
2021/10/16 04:48:57;;;;;;;12.90;3.55;;;2.90;99.90;;;;;;4972940;28;20025;-84
2021/10/16 04:51:23;;;;;;;8.93;3.55;;;2.80;99.90;;;;;;5021117;28;20104;-83
2021/10/16 04:53:48;;;;;;;10.27;3.40;;;2.90;99.90;;;;;;4998035;28;20425;-84
2021/10/16 04:56:14;;;;;;;10.13;3.10;;;2.80;99.90;;;;;;5002085;28;20570;-83
2021/10/16 04:58:39;;;;;;;7.60;3.53;;;2.80;99.90;;;;;;5003575;28;20172;-84
2021/10/16 05:01:06;;;;;;;6.18;3.00;;;2.70;99.90;;;;;;5001342;28;20037;-84
2021/10/16 05:03:31;;;;;;;8.45;3.20;;;2.80;99.90;;;;;;4988487;28;20124;-84
2021/10/16 05:05:57;;;;;;;9.75;3.45;;;2.80;99.90;;;;;;4972975;28;20129;-84
2021/10/16 05:08:22;;;;;;;7.43;3.47;;;2.70;99.90;;;;;;4995678;28;20061;-84
2021/10/16 05:10:48;;;;;;;6.03;2.95;;;2.70;99.90;;;;;;4999989;28;20084;-84
2021/10/16 05:13:14;;;;;;;10.32;3.42;;;2.60;99.90;;;;;;4980852;28;20466;-84
2021/10/16 05:15:39;;;;;;;5.18;2.47;;;2.70;99.90;;;;;;4996650;28;20034;-84
2021/10/16 05:18:05;;;;;;;12.90;4.88;;;2.80;99.90;;;;;;5002326;28;20046;-84
2021/10/16 05:20:30;;;;;;;8.50;4.07;;;2.70;99.90;;;;;;4988687;28;20067;-84
2021/10/16 05:22:56;;;;;;;12.20;3.80;;;2.60;99.90;;;;;;4993011;28;20470;-83
2021/10/16 05:25:22;;;;;;;6.07;3.35;;;2.50;99.90;;;;;;4997022;28;20038;-84
2021/10/16 05:27:49;;;;;;;11.50;4.13;;;2.40;99.90;;;;;;5003802;28;20034;-84
2021/10/16 05:30:15;;;;;;;13.30;4.40;;;2.40;99.90;;;;;;5001623;28;20044;-83
2021/10/16 05:32:40;;;;;;;11.48;4.72;;;2.40;99.90;;;;;;4992636;28;20490;-84
2021/10/16 05:35:06;;;;;;;8.63;3.58;;;2.30;99.90;;;;;;4999460;28;20030;-84
2021/10/16 05:37:32;;;;;;;12.23;3.90;;;2.30;99.90;;;;;;4985119;28;20050;-84
2021/10/16 05:39:57;;;;;;;6.93;2.90;;;2.40;99.90;;;;;;4982900;28;20137;-84
2021/10/16 05:42:23;;;;;;;6.55;3.60;;;2.40;99.90;;;;;;5003459;28;20030;-84
2021/10/16 05:44:48;;;;;;;10.63;4.50;;;2.40;99.90;;;;;;5005355;28;20053;-85
2021/10/16 05:47:15;;;;;;;8.77;2.85;;;2.30;99.90;;;;;;4974765;28;20034;-84
2021/10/16 05:49:41;;;;;;;5.78;4.28;;;2.40;99.90;;;;;;4984496;28;20050;-84
2021/10/16 05:52:06;;;;;;;15.05;4.13;;;2.50;99.90;;;;;;4958354;28;20062;-84
2021/10/16 05:54:32;;;;;;;12.80;4.72;;;2.40;99.90;;;;;;4961661;28;20049;-84
2021/10/16 05:56:57;;;;;;;13.32;5.15;;;2.40;99.90;;;;;;4951613;28;20037;-84
2021/10/16 05:59:23;;;;;;;5.25;2.85;;;2.30;99.90;;;;;;4970178;28;20031;-84
2021/10/16 06:01:48;;;;;;;9.10;3.70;;;2.40;99.90;;;;;;4980869;28;20034;-84
2021/10/16 06:04:14;;;;;;;10.07;3.90;;;2.50;99.90;;;;;;4967296;28;20040;-84
2021/10/16 06:06:39;;;;;;;9.32;3.33;;;2.50;99.90;;;;;;4970554;28;20125;-84
2021/10/16 06:09:05;;;;;;;13.77;3.85;;;2.70;99.90;;;;;;5007195;28;20068;-84
2021/10/16 06:11:31;;;;;;;9.05;4.38;;;2.70;99.90;;;;;;5003928;28;20211;-84
2021/10/16 06:13:57;;;;;;;8.55;4.60;;;2.70;99.90;;;;;;5003700;28;20109;-84
2021/10/16 06:16:23;;;;;;;14.82;5.22;;;2.70;99.90;;;;;;5004506;28;20030;-84
2021/10/16 06:18:49;;;;;;;14.13;4.88;;;2.60;99.90;;;;;;4997180;28;20426;-84
2021/10/16 06:21:14;;;;;;;17.15;5.57;;;2.60;99.90;;;;;;4993311;28;20082;-87
2021/10/16 06:23:40;;;;;;;17.75;5.55;;;2.60;99.90;;;;;;4994389;28;20034;-84
2021/10/16 06:26:05;;;;;;;12.68;5.03;;;2.40;99.90;;;;;;5003989;28;20077;-84
2021/10/16 06:28:31;;;;;;;9.43;4.72;;;2.30;99.90;;;;;;4987882;28;20030;-84
2021/10/16 06:30:57;;;;;;;7.57;4.80;;;2.50;99.90;;;;;;4986533;28;20588;-84
2021/10/16 06:33:24;;;;;;;8.30;4.93;;;2.60;99.90;;;;;;4955966;28;20080;-84
2021/10/16 06:35:50;;;;;;;15.52;6.07;;;2.70;99.90;;;;;;4982513;28;20065;-85
2021/10/16 06:38:16;;;;;;;15.30;5.50;;;2.80;99.90;;;;;;4987407;28;20038;-84
2021/10/16 06:40:41;;;;;;;16.50;5.15;;;2.90;99.90;;;;;;4994437;28;20034;-84
2021/10/16 06:43:07;;;;;;;7.95;3.80;;;3.00;99.90;;;;;;4966126;28;20037;-84
2021/10/16 06:45:32;;;;;;;9.00;3.60;;;3.20;99.90;;;;;;4969752;28;20121;-85
2021/10/16 06:47:58;;;;;;;11.65;5.15;;;3.30;99.90;;;;;;4953324;28;20034;-84
2021/10/16 06:50:24;;;;;;;9.50;5.05;;;3.30;99.90;;;;;;4972578;28;20109;-84
2021/10/16 06:52:49;;;;;;;14.18;4.60;;;3.40;99.90;;;;;;4968840;28;20079;-85
2021/10/16 06:55:15;;;;;;;10.63;5.15;;;3.50;99.90;;;;;;4986041;28;20046;-85
2021/10/16 06:57:40;;;;;;;13.55;5.40;;;3.50;99.90;;;;;;4958037;28;20476;-85
2021/10/16 07:00:06;;;;;;;16.20;6.95;;;3.60;99.90;;;;;;4969355;28;20141;-85
2021/10/16 07:02:32;;;;;;;18.75;6.80;;;3.70;99.90;;;;;;4966053;28;20093;-86
2021/10/16 07:04:57;;;;;;;21.63;6.63;;;3.70;99.90;;;;;;4987277;28;20046;-85
2021/10/16 07:07:23;;;;;;;18.92;7.22;;;3.80;99.90;;;;;;4963555;28;20042;-85
2021/10/16 07:09:48;;;;;;;17.00;7.53;;;3.90;99.90;;;;;;4984444;28;20213;-85
2021/10/16 07:12:14;;;;;;;15.60;5.88;;;4.00;99.90;;;;;;4984862;28;20399;-85
2021/10/16 07:14:40;;;;;;;13.30;5.90;;;4.10;99.90;;;;;;4971514;28;20022;-85
2021/10/16 07:17:05;;;;;;;15.95;5.55;;;4.30;99.90;;;;;;4982472;28;20031;-86
2021/10/16 07:19:31;;;;;;;10.35;4.53;;;4.50;99.90;;;;;;5000860;28;20534;-85
2021/10/16 07:21:57;;;;;;;21.85;6.97;;;4.60;99.90;;;;;;4980154;28;20027;-85
2021/10/16 07:24:22;;;;;;;20.73;9.02;;;4.70;99.90;;;;;;4970146;28;20085;-86
2021/10/16 07:26:48;;;;;;;23.95;8.63;;;4.80;99.90;;;;;;4971923;28;20487;-85
2021/10/16 07:29:13;;;;;;;28.95;9.10;;;4.80;99.90;;;;;;4969990;28;20254;-85
2021/10/16 07:31:39;;;;;;;22.98;9.00;;;4.90;99.90;;;;;;4988746;28;20030;-85
2021/10/16 07:34:05;;;;;;;16.63;7.93;;;5.00;99.90;;;;;;4985221;28;20244;-85
2021/10/16 07:36:38;;;;;;;15.35;5.80;;;5.10;99.90;;;;;;4983350;28;20040;-85
2021/10/16 07:39:05;;;;;;;10.63;5.18;;;5.20;99.90;;;;;;4989334;28;20041;-85
2021/10/16 07:41:30;;;;;;;9.13;5.00;;;5.30;99.90;;;;;;4997141;28;20105;-86
2021/10/16 07:43:56;;;;;;;26.88;9.50;;;5.40;99.90;;;;;;4998987;28;20405;-85
2021/10/16 07:46:21;;;;;;;14.98;6.32;;;5.60;99.90;;;;;;4977192;28;20476;-86
2021/10/16 07:48:48;;;;;;;28.70;11.57;;;5.70;99.90;;;;;;4971846;28;20042;-86
2021/10/16 07:51:14;;;;;;;32.97;13.20;;;5.90;99.90;;;;;;4993216;28;20382;-86
2021/10/16 07:53:39;;;;;;;29.80;12.32;;;6.00;99.90;;;;;;5019762;28;20041;-86
2021/10/16 07:56:05;;;;;;;28.98;12.00;;;6.00;99.90;;;;;;4996081;28;20026;-86
2021/10/16 07:58:30;;;;;;;36.92;13.85;;;6.20;99.90;;;;;;4987936;28;20494;-86
2021/10/16 08:00:56;;;;;;;31.90;10.88;;;6.20;99.90;;;;;;4990275;28;20045;-86
2021/10/16 08:03:21;;;;;;;33.47;9.45;;;6.40;99.90;;;;;;4997126;28;20386;-85
2021/10/16 08:05:47;;;;;;;25.75;8.43;;;6.50;99.90;;;;;;4969153;28;20528;-86
2021/10/16 08:08:13;;;;;;;18.90;8.23;;;6.60;99.90;;;;;;5003460;28;20041;-86
2021/10/16 08:10:39;;;;;;;33.63;11.50;;;6.70;99.90;;;;;;4998622;28;20121;-86
2021/10/16 08:13:04;;;;;;;18.45;10.32;;;6.70;99.90;;;;;;4998458;28;20030;-86
2021/10/16 08:15:30;;;;;;;40.00;14.02;;;6.90;99.90;;;;;;4989025;28;20026;-86
2021/10/16 08:17:55;;;;;;;16.15;8.02;;;6.90;99.90;;;;;;4971007;28;20155;-86
2021/10/16 08:20:21;;;;;;;26.23;11.45;;;7.10;99.90;;;;;;5003420;28;20286;-86
2021/10/16 08:22:47;;;;;;;18.02;7.82;;;7.10;99.90;;;;;;4988553;28;20034;-86
2021/10/16 08:25:12;;;;;;;32.42;10.40;;;7.30;99.90;;;;;;5005345;28;20030;-86
2021/10/16 08:27:39;;;;;;;30.13;11.68;;;7.40;99.90;;;;;;5003746;28;20027;-86
2021/10/16 08:30:05;;;;;;;39.50;11.88;;;7.40;99.90;;;;;;4965565;28;20109;-86
2021/10/16 08:32:31;;;;;;;31.33;11.60;;;7.50;99.90;;;;;;4961420;28;20490;-86
2021/10/16 08:34:57;;;;;;;25.98;10.30;;;7.60;99.90;;;;;;4970702;28;20403;-87
2021/10/16 08:37:22;;;;;;;26.45;10.38;;;7.60;99.90;;;;;;4964176;28;20513;-86
2021/10/16 08:39:48;;;;;;;27.90;10.73;;;7.80;99.90;;;;;;5000401;28;20052;-86
2021/10/16 08:42:13;;;;;;;21.42;9.90;;;7.90;99.90;;;;;;5004396;28;20040;-86
2021/10/16 08:44:39;;;;;;;20.90;9.27;;;8.00;99.90;;;;;;5003590;28;20030;-86
2021/10/16 08:47:05;;;;;;;20.17;8.75;;;8.10;99.90;;;;;;4999460;28;20243;-86
2021/10/16 08:49:31;;;;;;;23.15;10.55;;;8.20;99.90;;;;;;5003714;28;20493;-86
2021/10/16 08:51:57;;;;;;;33.00;13.50;;;8.40;99.90;;;;;;4971476;28;20031;-86
2021/10/16 08:54:22;;;;;;;32.55;12.20;;;8.50;99.90;;;;;;4997200;28;20321;-86
2021/10/16 08:56:48;;;;;;;24.77;11.13;;;8.60;99.90;;;;;;4968040;28;20498;-86
2021/10/16 08:59:13;;;;;;;42.95;15.40;;;8.80;99.90;;;;;;4975984;28;20027;-87
2021/10/16 09:01:58;;;;;;;21.13;9.10;;;8.90;99.90;;;;;;4999852;28;20034;-86
2021/10/16 09:04:24;;;;;;;23.48;8.40;;;9.00;99.90;;;;;;5019037;28;20177;-86
2021/10/16 09:06:49;;;;;;;22.15;9.95;;;9.10;99.90;;;;;;4982224;28;20506;-87
2021/10/16 09:09:16;;;;;;;22.55;10.50;;;9.20;99.90;;;;;;4963680;28;20394;-86
2021/10/16 09:11:46;;;;;;;33.50;12.30;;;9.40;99.90;;;;;;4982355;28;20483;-87
2021/10/16 09:14:17;;;;;;;30.08;11.05;;;9.50;99.90;;;;;;4998272;28;20019;-86
2021/10/16 09:16:50;;;;;;;21.25;8.55;;;9.70;99.90;;;;;;4976654;28;20471;-87
2021/10/16 09:19:19;;;;;;;16.40;6.72;;;9.80;99.90;;;;;;4981355;28;20025;-87
2021/10/16 09:22:17;;;;;;;11.23;4.75;;;9.90;99.90;;;;;;4967919;28;20027;-87
2021/10/16 09:24:47;;;;;;;30.77;9.88;;;10.00;99.90;;;;;;5005045;28;20037;-87
2021/10/16 09:27:22;;;;;;;19.00;6.78;;;10.30;99.90;;;;;;5002701;28;20034;-87
2021/10/16 09:30:01;;;;;;;22.17;8.85;;;10.40;99.90;;;;;;4955404;28;20030;-87
2021/10/16 09:32:28;;;;;;;9.40;5.13;;;10.60;99.90;;;;;;4967570;28;20041;-87
2021/10/16 09:35:01;;;;;;;16.38;4.70;;;10.50;99.90;;;;;;4980878;28;20038;-86
2021/10/16 09:37:26;;;;;;;11.30;5.43;;;10.70;99.90;;;;;;4969194;28;20030;-86
2021/10/16 09:39:53;;;;;;;11.27;4.88;;;10.70;99.90;;;;;;4992828;28;20447;-87
2021/10/16 09:42:39;;;;;;;15.05;5.68;;;10.80;99.90;;;;;;4976482;28;20386;-86
2021/10/16 09:45:05;;;;;;;26.00;7.40;;;11.10;99.90;;;;;;4998529;28;20022;-86
2021/10/16 09:47:31;;;;;;;10.77;4.22;;;11.20;99.90;;;;;;4992070;28;20478;-87
2021/10/16 09:50:06;;;;;;;10.77;3.83;;;11.30;99.90;;;;;;4992550;28;20030;-87
2021/10/16 09:52:39;;;;;;;7.37;3.80;;;11.50;99.90;;;;;;5014616;28;20038;-87
2021/10/16 09:55:08;;;;;;;11.10;3.30;;;11.50;99.90;;;;;;5006532;28;20034;-87
2021/10/16 09:57:37;;;;;;;11.63;3.28;;;11.60;99.90;;;;;;4972228;28;20170;-87
2021/10/16 10:00:04;;;;;;;5.80;2.70;;;11.70;99.90;;;;;;4984932;28;20038;-87
2021/10/16 10:02:30;;;;;;;11.15;3.28;;;11.70;99.90;;;;;;4969751;28;20443;-87
2021/10/16 10:04:56;;;;;;;9.48;3.33;;;11.80;99.90;;;;;;4972031;28;20378;-87
2021/10/16 10:07:21;;;;;;;11.63;3.47;;;12.10;99.90;;;;;;4970609;28;20026;-87
2021/10/16 10:09:47;;;;;;;10.13;2.95;;;12.10;99.90;;;;;;4974685;28;20034;-88
2021/10/16 10:12:13;;;;;;;8.02;2.63;;;12.10;99.90;;;;;;4989164;28;20160;-87
2021/10/16 10:14:40;;;;;;;8.88;3.65;;;12.20;99.90;;;;;;4964759;28;20031;-87
2021/10/16 10:17:06;;;;;;;21.77;5.40;;;12.50;99.90;;;;;;4986023;28;20034;-88
2021/10/16 10:19:37;;;;;;;14.73;3.53;;;12.60;99.90;;;;;;4964024;28;20297;-88
2021/10/16 10:22:07;;;;;;;10.25;3.25;;;12.70;99.90;;;;;;4956438;28;20142;-87
2021/10/16 10:24:41;;;;;;;9.48;2.13;;;12.70;99.90;;;;;;4970417;28;20038;-87
2021/10/16 10:27:11;;;;;;;7.13;2.30;;;13.10;99.90;;;;;;4981646;28;20030;-87
2021/10/16 10:29:38;;;;;;;8.05;2.25;;;13.00;99.90;;;;;;4966153;28;20034;-88
2021/10/16 10:32:06;;;;;;;9.13;1.85;;;12.90;99.90;;;;;;4962115;28;20032;-87
2021/10/16 10:34:36;;;;;;;10.50;2.33;;;12.90;99.90;;;;;;4968534;28;20043;-88
2021/10/16 10:37:10;;;;;;;10.23;1.95;;;13.00;99.90;;;;;;4988059;28;20668;-86
2021/10/16 10:39:39;;;;;;;12.35;2.00;;;13.10;99.90;;;;;;4964197;28;20418;-86
2021/10/16 10:42:13;;;;;;;9.98;1.75;;;13.20;99.90;;;;;;4961430;28;20046;-87
2021/10/16 10:44:48;;;;;;;10.52;2.95;;;13.20;99.90;;;;;;4998573;28;20022;-87
2021/10/16 10:47:23;;;;;;;7.13;1.50;;;14.30;99.90;;;;;;4983671;28;20041;-87
2021/10/16 10:49:49;;;;;;;9.38;1.80;;;14.30;99.90;;;;;;4969853;28;20539;-87
2021/10/16 10:52:27;;;;;;;6.65;1.63;;;14.10;99.90;;;;;;4972086;28;20029;-88
2021/10/16 10:54:59;;;;;;;7.35;1.70;;;14.30;99.90;;;;;;4985275;28;20054;-87
2021/10/16 10:57:47;;;;;;;6.28;1.75;;;14.20;99.90;;;;;;4995168;28;20027;-87
2021/10/16 11:00:29;;;;;;;8.57;1.70;;;14.20;99.90;;;;;;4986087;28;20061;-87
2021/10/16 11:02:54;;;;;;;8.02;2.38;;;14.90;99.90;;;;;;4968159;28;20483;-87
2021/10/16 11:05:40;;;;;;;6.90;1.75;;;14.90;99.90;;;;;;4974351;28;20089;-87
2021/10/16 11:08:14;;;;;;;7.32;2.25;;;14.90;99.90;;;;;;4982546;28;20030;-87
2021/10/16 11:10:41;;;;;;;8.93;2.13;;;14.80;99.90;;;;;;4970718;28;20410;-87
2021/10/16 11:13:14;;;;;;;9.35;3.08;;;14.70;99.90;;;;;;4949648;28;20391;-87
2021/10/16 11:15:40;;;;;;;9.18;2.47;;;14.80;99.90;;;;;;4963937;28;20482;-87
2021/10/16 11:18:13;;;;;;;11.18;4.40;;;14.80;99.90;;;;;;4950487;28;20027;-87
2021/10/16 11:20:38;;;;;;;14.45;3.13;;;14.90;99.90;;;;;;4997668;28;20105;-87
2021/10/16 11:23:04;;;;;;;10.98;3.38;;;14.90;99.90;;;;;;4983038;28;20034;-87
2021/10/16 11:25:31;;;;;;;16.00;3.35;;;14.80;99.90;;;;;;4986962;28;20066;-87
2021/10/16 11:28:03;;;;;;;13.07;3.08;;;14.90;99.90;;;;;;4960573;28;20039;-87
2021/10/16 11:30:29;;;;;;;14.60;3.30;;;14.80;99.90;;;;;;5000369;28;20049;-87
2021/10/16 11:33:05;;;;;;;7.22;2.38;;;14.90;99.90;;;;;;4979553;28;20461;-87
2021/10/16 11:35:30;;;;;;;10.45;2.42;;;15.00;99.90;;;;;;4974199;28;20026;-87
2021/10/16 11:37:56;;;;;;;11.35;3.53;;;15.10;99.90;;;;;;4986685;28;20450;-87
2021/10/16 11:40:24;;;;;;;11.07;2.90;;;15.10;99.90;;;;;;4981823;28;20042;-87
2021/10/16 11:42:53;;;;;;;18.83;3.20;;;15.20;99.90;;;;;;5000821;28;20089;-87
2021/10/16 11:45:21;;;;;;;9.48;2.83;;;15.20;99.90;;;;;;4989044;28;20034;-87
2021/10/16 11:47:52;;;;;;;9.10;2.47;;;15.20;99.90;;;;;;4984687;28;20610;-87
2021/10/16 11:50:20;;;;;;;10.07;2.63;;;15.40;99.90;;;;;;4993714;28;20117;-86
2021/10/16 11:52:50;;;;;;;8.75;2.45;;;15.40;99.90;;;;;;4947470;28;20121;-87
2021/10/16 11:55:18;;;;;;;12.40;2.60;;;15.60;99.90;;;;;;4998276;28;20073;-87
2021/10/16 11:57:43;;;;;;;7.35;2.08;;;15.70;99.90;;;;;;5001970;28;20101;-87
2021/10/16 12:00:23;;;;;;;6.07;1.58;;;16.40;99.90;;;;;;4988244;28;20026;-88
2021/10/16 12:02:48;;;;;;;4.75;1.80;;;16.70;99.90;;;;;;4983733;28;20031;-87
2021/10/16 12:05:18;;;;;;;5.43;2.13;;;16.50;99.90;;;;;;4985095;28;20048;-87
2021/10/16 12:07:45;;;;;;;7.38;2.30;;;16.40;99.90;;;;;;4989179;28;20042;-87
2021/10/16 12:10:35;;;;;;;7.40;2.10;;;16.40;99.90;;;;;;4984463;28;20094;-87
2021/10/16 12:13:07;;;;;;;7.63;2.70;;;16.70;99.90;;;;;;4989889;28;20038;-87
2021/10/16 12:15:41;;;;;;;12.18;3.08;;;16.80;99.90;;;;;;4980824;28;20525;-88
2021/10/16 12:18:18;;;;;;;9.48;3.10;;;16.70;99.90;;;;;;4984026;28;20027;-87
2021/10/16 12:20:45;;;;;;;7.43;2.58;;;16.60;99.90;;;;;;4985317;28;20494;-88
2021/10/16 12:23:10;;;;;;;9.57;2.92;;;16.80;99.90;;;;;;4979654;28;20063;-87
2021/10/16 12:25:46;;;;;;;7.47;2.95;;;16.90;99.90;;;;;;4994415;28;20529;-87
2021/10/16 12:28:12;;;;;;;7.78;2.88;;;16.80;99.90;;;;;;5019944;28;20130;-87
2021/10/16 12:30:38;;;;;;;7.53;2.30;;;16.70;99.90;;;;;;4997855;28;20054;-87
2021/10/16 12:33:08;;;;;;;8.70;3.50;;;16.70;99.90;;;;;;4983777;28;20026;-88
2021/10/16 12:35:34;;;;;;;10.55;3.22;;;16.70;99.90;;;;;;4994333;28;20172;-87
2021/10/16 12:38:00;;;;;;;8.95;2.22;;;16.60;99.90;;;;;;4972082;28;20529;-88
2021/10/16 12:40:39;;;;;;;13.18;3.22;;;16.70;99.90;;;;;;4971797;28;20172;-88
2021/10/16 12:43:05;;;;;;;7.82;2.67;;;16.80;99.90;;;;;;5002044;28;20030;-88
2021/10/16 12:45:39;;;;;;;8.90;2.97;;;16.70;99.90;;;;;;4998527;28;20076;-87
2021/10/16 12:48:34;;;;;;;6.00;2.40;;;16.70;99.90;;;;;;4987915;28;20026;-88